createdAt,value
2019-02-07T00:02:26.394Z,170.30
2019-02-07T00:04:56.795Z,167.97
2019-02-07T00:07:28.694Z,178.93
2019-02-07T00:09:58.798Z,185.00
2019-02-07T00:12:28.814Z,182.50
2019-02-07T00:14:59.077Z,155.93
2019-02-07T00:17:29.218Z,190.73
2019-02-07T00:19:59.254Z,197.50
2019-02-07T00:22:29.174Z,172.00
2019-02-07T00:24:59.274Z,156.97
2019-02-07T00:27:29.979Z,149.33
2019-02-07T00:30:01.995Z,165.30
2019-02-07T00:32:32.495Z,165.40
2019-02-07T00:35:02.874Z,166.50
2019-02-07T00:37:33.194Z,169.20
2019-02-07T00:40:03.614Z,164.03
2019-02-07T00:42:33.774Z,176.10
2019-02-07T00:45:05.663Z,186.13
2019-02-07T00:47:36.134Z,180.47
2019-02-07T00:50:08.935Z,176.27
2019-02-07T00:52:38.934Z,188.60
2019-02-07T00:55:14.497Z,181.07
2019-02-07T00:57:45.076Z,170.93
2019-02-07T01:00:18.195Z,174.37
2019-02-07T01:02:48.874Z,151.70
2019-02-07T01:05:19.734Z,157.57
2019-02-07T01:07:50.074Z,153.50
2019-02-07T01:10:26.037Z,156.13
2019-02-07T01:12:56.342Z,146.13
2019-02-07T01:15:28.714Z,139.07
2019-02-07T01:17:58.714Z,128.97
2019-02-07T01:20:29.054Z,124.20
2019-02-07T01:22:59.376Z,118.83
2019-02-07T01:25:29.535Z,123.65
2019-02-07T01:28:00.774Z,118.45
2019-02-07T01:30:31.454Z,132.33
2019-02-07T01:33:01.717Z,117.60
2019-02-07T01:35:31.815Z,117.00
2019-02-07T01:38:01.936Z,121.73
2019-02-07T01:40:32.054Z,121.10
2019-02-07T01:43:02.076Z,120.77
2019-02-07T01:45:32.314Z,117.43
2019-02-07T01:48:02.854Z,123.35
2019-02-07T01:50:33.482Z,115.70
2019-02-07T01:53:03.674Z,127.95
2019-02-07T01:55:33.714Z,124.43
2019-02-07T01:58:04.599Z,125.77
2019-02-07T02:00:34.976Z,125.23
2019-02-07T02:03:05.394Z,110.75
2019-02-07T02:05:35.595Z,105.67
2019-02-07T02:08:05.817Z,115.43
2019-02-07T02:10:35.954Z,116.10
2019-02-07T02:15:35.386Z,108.50
2019-02-07T02:18:06.062Z,107.15
2019-02-07T02:20:36.324Z,111.95
2019-02-07T02:23:06.523Z,113.30
2019-02-07T02:25:36.943Z,106.05
2019-02-07T02:28:07.363Z,115.30
2019-02-07T02:30:37.803Z,112.30
2019-02-07T02:33:07.983Z,106.90
2019-02-07T02:35:38.359Z,102.73
2019-02-07T02:38:08.363Z,103.80
2019-02-07T02:40:38.783Z,98.70
2019-02-07T02:43:08.803Z,85.90
2019-02-07T02:48:08.255Z,90.70
2019-02-07T02:50:38.744Z,94.30
2019-02-07T02:53:09.123Z,83.80
2019-02-07T02:55:40.818Z,94.45
2019-02-07T03:00:42.019Z,86.30
2019-02-07T03:08:27.222Z,73.80
2019-02-07T03:11:08.272Z,77.45
2019-02-07T03:13:46.991Z,73.70
2019-02-07T03:16:35.622Z,77.70
2019-02-07T03:22:11.923Z,70.05
2019-02-07T03:24:43.662Z,72.10
2019-02-07T03:29:52.503Z,79.90
2019-02-07T03:32:24.263Z,69.30
2019-02-07T03:40:26.462Z,71.50
2019-02-07T03:45:38.139Z,74.00
2019-02-07T03:48:13.099Z,77.65
2019-02-07T03:50:44.846Z,70.60
2019-02-07T03:53:34.538Z,69.20
2019-02-07T03:56:10.490Z,71.45
2019-02-07T03:58:58.721Z,72.00
2019-02-07T04:04:08.083Z,68.55
2019-02-07T04:06:46.483Z,78.40
2019-02-07T04:09:27.471Z,70.70
2019-02-07T04:12:12.630Z,75.90
2019-02-07T04:14:50.430Z,74.20
2019-02-07T04:20:08.480Z,71.40
2019-02-07T04:25:38.349Z,75.30
2019-02-07T04:31:02.336Z,62.15
2019-02-07T04:33:34.045Z,76.45
2019-02-07T04:36:05.803Z,63.30
2019-02-07T04:38:43.309Z,63.60
2019-02-07T04:41:33.706Z,65.60
2019-02-07T04:44:20.624Z,60.70
2019-02-07T04:46:59.534Z,64.10
2019-02-07T04:49:31.544Z,60.30
2019-02-07T04:52:12.199Z,69.37
2019-02-07T04:55:00.538Z,68.17
2019-02-07T04:57:33.206Z,63.73
2019-02-07T05:00:09.988Z,59.43
2019-02-07T05:02:41.518Z,64.10
2019-02-07T05:05:13.482Z,61.00
2019-02-07T05:07:45.258Z,61.50
2019-02-07T05:10:26.414Z,62.70
2019-02-07T05:12:58.122Z,68.57
2019-02-07T05:15:39.141Z,66.07
2019-02-07T05:18:27.685Z,65.60
2019-02-07T05:21:04.962Z,57.77
2019-02-07T05:23:39.783Z,61.55
2019-02-07T05:26:23.544Z,67.27
2019-02-07T05:29:01.267Z,65.43
2019-02-07T05:31:42.111Z,57.00
2019-02-07T05:34:17.144Z,63.27
2019-02-07T05:36:49.217Z,62.80
2019-02-07T05:39:20.984Z,58.73
2019-02-07T05:41:53.029Z,58.10
2019-02-07T05:44:25.082Z,59.87
2019-02-07T05:46:56.786Z,68.27
2019-02-07T05:49:40.998Z,67.65
2019-02-07T05:52:21.444Z,62.07
2019-02-07T05:55:11.958Z,67.10
2019-02-07T05:57:43.609Z,61.30
2019-02-07T06:00:33.883Z,62.30
2019-02-07T06:03:20.999Z,71.50
2019-02-07T06:08:23.801Z,68.45
2019-02-07T06:11:01.615Z,62.33
2019-02-07T06:13:34.038Z,78.20
2019-02-07T06:16:11.884Z,70.53
2019-02-07T06:18:59.919Z,78.50
2019-02-07T06:21:32.080Z,74.85
2019-02-07T06:24:03.936Z,74.83
2019-02-07T06:26:54.337Z,64.87
2019-02-07T06:29:29.569Z,64.07
2019-02-07T06:32:10.327Z,71.67
2019-02-07T06:34:58.774Z,68.97
2019-02-07T06:37:33.821Z,61.00
2019-02-07T06:40:09.900Z,63.07
2019-02-07T06:42:48.088Z,63.93
2019-02-07T06:45:20.972Z,69.20
2019-02-07T06:47:53.063Z,61.70
2019-02-07T06:50:30.973Z,68.80
2019-02-07T06:53:06.169Z,68.33
2019-02-07T06:55:37.929Z,69.23
2019-02-07T06:58:24.928Z,64.80
2019-02-07T07:01:09.619Z,66.67
2019-02-07T07:03:47.417Z,62.80
2019-02-07T07:06:25.449Z,67.10
2019-02-07T07:08:57.363Z,64.43
2019-02-07T07:11:28.990Z,65.37
2019-02-07T07:14:03.642Z,64.93
2019-02-07T07:16:35.501Z,63.07
2019-02-07T07:19:07.618Z,64.10
2019-02-07T07:21:58.184Z,60.83
2019-02-07T07:24:30.213Z,58.57
2019-02-07T07:27:16.936Z,67.20
2019-02-07T07:29:48.760Z,58.77
2019-02-07T07:32:23.502Z,63.43
2019-02-07T07:35:08.268Z,65.03
2019-02-07T07:37:55.073Z,61.27
2019-02-07T07:40:27.451Z,62.23
2019-02-07T07:43:02.995Z,57.23
2019-02-07T07:45:37.726Z,57.00
2019-02-07T07:48:21.456Z,59.10
2019-02-07T07:50:59.262Z,63.00
2019-02-07T07:53:30.900Z,66.03
2019-02-07T07:56:08.905Z,55.30
2019-02-07T07:58:53.382Z,58.10
2019-02-07T08:01:31.114Z,56.63
2019-02-07T08:04:05.683Z,55.80
2019-02-07T08:06:37.703Z,57.67
2019-02-07T08:09:12.679Z,62.83
2019-02-07T08:11:44.653Z,54.47
2019-02-07T08:14:32.990Z,55.10
2019-02-07T08:17:10.988Z,58.50
2019-02-07T08:19:49.325Z,58.93
2019-02-07T08:22:24.237Z,53.87
2019-02-07T08:24:56.522Z,60.20
2019-02-07T08:27:45.555Z,57.17
2019-02-07T08:30:18.126Z,54.53
2019-02-07T08:32:49.895Z,52.63
2019-02-07T08:35:21.422Z,50.23
2019-02-07T08:37:58.044Z,51.10
2019-02-07T08:40:29.152Z,51.90
2019-02-07T08:43:20.059Z,51.27
2019-02-07T08:45:56.515Z,58.03
2019-02-07T08:48:32.275Z,51.07
2019-02-07T08:51:22.666Z,50.50
2019-02-07T08:54:03.541Z,51.80
2019-02-07T08:56:35.804Z,50.20
2019-02-07T08:59:24.152Z,53.13
2019-02-07T09:01:58.772Z,46.67
2019-02-07T09:04:40.362Z,49.57
2019-02-07T09:07:12.732Z,49.80
2019-02-07T09:09:44.442Z,48.73
2019-02-07T09:12:32.218Z,49.20
2019-02-07T09:15:04.291Z,50.60
2019-02-07T09:17:39.032Z,49.67
2019-02-07T09:20:16.105Z,48.87
2019-02-07T09:23:06.761Z,53.50
2019-02-07T09:25:44.650Z,52.23
2019-02-07T09:28:16.326Z,47.40
2019-02-07T09:31:06.838Z,52.27
2019-02-07T09:33:53.975Z,48.73
2019-02-07T09:36:40.674Z,47.97
2019-02-07T09:39:30.652Z,43.50
2019-02-07T09:42:05.396Z,43.30
2019-02-07T09:44:56.072Z,43.00
2019-02-07T09:47:27.779Z,49.20
2019-02-07T09:50:17.518Z,40.83
2019-02-07T09:53:05.037Z,45.33
2019-02-07T09:55:39.551Z,45.57
2019-02-07T09:58:11.632Z,42.47
2019-02-07T10:00:59.245Z,38.13
2019-02-07T10:03:37.244Z,40.53
2019-02-07T10:06:28.666Z,38.43
2019-02-07T10:09:12.318Z,35.87
2019-02-07T10:11:44.055Z,36.67
2019-02-07T10:14:21.757Z,38.80
2019-02-07T10:17:05.759Z,37.43
2019-02-07T10:19:40.213Z,37.97
2019-02-07T10:22:11.976Z,35.20
2019-02-07T10:24:45.785Z,35.27
2019-02-07T10:27:17.459Z,34.80
2019-02-07T10:30:04.315Z,37.10
2019-02-07T10:32:38.779Z,38.40
2019-02-07T10:35:22.465Z,37.97
2019-02-07T10:37:51.390Z,35.00
2019-02-07T10:40:41.774Z,36.57
2019-02-07T10:43:15.277Z,38.80
2019-02-07T10:45:47.171Z,35.97
2019-02-07T10:48:19.089Z,30.67
2019-02-07T10:51:07.650Z,33.47
2019-02-07T10:53:42.297Z,33.13
2019-02-07T10:56:23.421Z,35.40
2019-02-07T10:59:15.492Z,33.23
2019-02-07T11:01:59.837Z,35.53
2019-02-07T11:04:37.559Z,34.33
2019-02-07T11:07:09.248Z,31.70
2019-02-07T11:09:56.904Z,30.73
2019-02-07T11:12:28.559Z,36.40
2019-02-07T11:15:00.303Z,33.47
2019-02-07T11:17:50.307Z,29.47
2019-02-07T11:20:22.169Z,32.70
2019-02-07T11:23:03.340Z,32.90
2019-02-07T11:25:44.826Z,35.07
2019-02-07T11:28:29.076Z,36.83
2019-02-07T11:31:03.495Z,33.20
2019-02-07T11:33:38.339Z,31.50
2019-02-07T11:36:16.428Z,31.10
2019-02-07T11:38:48.231Z,34.13
2019-02-07T11:41:22.503Z,33.00
2019-02-07T11:43:57.831Z,31.43
2019-02-07T11:46:48.786Z,31.10
2019-02-07T11:49:38.318Z,34.20
2019-02-07T11:52:19.150Z,32.70
2019-02-07T11:54:57.503Z,33.33
2019-02-07T11:57:29.947Z,29.23
2019-02-07T12:00:01.840Z,36.10
2019-02-07T12:02:50.198Z,32.50
2019-02-07T12:05:30.856Z,32.23
2019-02-07T12:08:19.076Z,33.10
2019-02-07T12:10:51.152Z,30.33
2019-02-07T12:13:27.212Z,30.13
2019-02-07T12:16:02.553Z,34.87
2019-02-07T12:18:49.550Z,30.77
2019-02-07T12:21:40.156Z,36.03
2019-02-07T12:24:28.222Z,24.77
2019-02-07T12:27:02.631Z,25.10
2019-02-07T12:29:49.628Z,26.20
2019-02-07T12:32:36.571Z,25.93
2019-02-07T12:35:14.034Z,32.83
2019-02-07T12:37:45.802Z,32.43
2019-02-07T12:40:17.959Z,29.80
2019-02-07T12:43:06.202Z,29.20
2019-02-07T12:45:51.272Z,30.23
2019-02-07T12:48:24.233Z,34.13
2019-02-07T12:51:09.105Z,30.70
2019-02-07T12:53:44.152Z,35.60
2019-02-07T12:56:21.537Z,29.63
2019-02-07T12:58:59.540Z,32.50
2019-02-07T13:01:47.267Z,28.07
2019-02-07T13:04:26.397Z,26.73
2019-02-07T13:06:58.258Z,32.30
2019-02-07T13:09:35.311Z,33.63
2019-02-07T13:12:13.264Z,31.17
2019-02-07T13:14:45.140Z,27.10
2019-02-07T13:17:23.530Z,29.93
2019-02-07T13:20:13.931Z,31.43
2019-02-07T13:22:48.518Z,32.33
2019-02-07T13:25:26.448Z,31.13
2019-02-07T13:27:58.222Z,29.43
2019-02-07T13:30:30.329Z,32.10
2019-02-07T13:33:18.618Z,39.23
2019-02-07T13:35:50.621Z,35.33
2019-02-07T13:38:38.181Z,32.77
2019-02-07T13:41:09.744Z,27.17
2019-02-07T13:43:58.076Z,27.20
2019-02-07T13:46:30.352Z,25.73
2019-02-07T13:49:18.793Z,25.10
2019-02-07T13:51:50.448Z,25.60
2019-02-07T13:54:37.155Z,24.97
2019-02-07T13:57:25.204Z,27.93
2019-02-07T14:00:08.723Z,23.63
2019-02-07T14:02:54.104Z,29.00
2019-02-07T14:05:41.936Z,29.80
2019-02-07T14:08:13.684Z,31.60
2019-02-07T14:10:48.574Z,36.73
2019-02-07T14:13:40.936Z,44.47
2019-02-07T14:16:29.713Z,43.23
2019-02-07T14:19:17.952Z,40.57
2019-02-07T14:21:49.892Z,37.77
2019-02-07T14:24:21.716Z,41.27
2019-02-07T14:26:56.524Z,43.53
2019-02-07T14:29:46.787Z,44.57
2019-02-07T14:32:35.234Z,47.20
2019-02-07T14:35:15.401Z,43.93
2019-02-07T14:37:50.053Z,45.57
2019-02-07T14:40:22.686Z,38.10
2019-02-07T14:42:54.865Z,42.80
2019-02-07T14:45:32.670Z,45.13
2019-02-07T14:48:03.185Z,49.07
2019-02-07T14:50:33.440Z,47.17
2019-02-07T14:53:03.922Z,48.73
2019-02-07T14:55:34.051Z,47.77
2019-02-07T14:58:04.495Z,50.17
2019-02-07T15:00:34.574Z,53.60
2019-02-07T15:03:04.935Z,76.50
2019-02-07T15:05:35.113Z,92.40
2019-02-07T15:08:05.626Z,115.70
2019-02-07T15:10:35.891Z,118.20
2019-02-07T15:13:06.010Z,93.57
2019-02-07T15:15:36.152Z,65.57
2019-02-07T15:18:06.641Z,50.43
2019-02-07T15:20:37.012Z,37.07
2019-02-07T15:23:06.965Z,41.67
2019-02-07T15:25:37.093Z,36.47
2019-02-07T15:28:07.344Z,39.23
2019-02-07T15:30:37.646Z,35.30
2019-02-07T15:33:07.766Z,37.33
2019-02-07T15:35:42.430Z,42.03
2019-02-07T15:38:12.790Z,34.67
2019-02-07T15:40:43.739Z,33.67
2019-02-07T15:43:13.954Z,37.10
2019-02-07T15:45:44.334Z,34.30
2019-02-07T15:48:14.437Z,28.67
2019-02-07T15:50:44.787Z,30.20
2019-02-07T15:53:15.015Z,29.53
2019-02-07T15:55:45.317Z,30.27
2019-02-07T15:58:16.041Z,29.87
2019-02-07T16:00:50.424Z,29.07
2019-02-07T16:03:38.063Z,133.73
2019-02-07T16:06:13.764Z,45.87
2019-02-07T16:08:44.954Z,43.23
2019-02-07T16:11:16.725Z,33.47
2019-02-07T16:13:47.200Z,36.67
2019-02-07T16:16:17.969Z,35.20
2019-02-07T16:18:48.775Z,34.30
2019-02-07T16:21:19.441Z,35.77
2019-02-07T16:23:49.564Z,42.47
2019-02-07T16:26:20.123Z,43.30
2019-02-07T16:28:50.642Z,36.13
2019-02-07T16:31:21.338Z,41.73
2019-02-07T16:33:52.041Z,33.10
2019-02-07T16:36:22.802Z,35.70
2019-02-07T16:38:54.407Z,38.33
2019-02-07T16:41:25.129Z,38.23
2019-02-07T16:43:57.681Z,39.17
2019-02-07T16:46:28.201Z,40.40
2019-02-07T16:48:58.839Z,36.20
2019-02-07T16:51:31.895Z,37.27
2019-02-07T16:54:02.804Z,37.20
2019-02-07T16:56:33.044Z,38.17
2019-02-07T16:59:03.480Z,36.80
2019-02-07T17:01:34.202Z,34.40
2019-02-07T17:04:08.642Z,35.27
2019-02-07T17:06:41.622Z,36.33
2019-02-07T17:09:14.724Z,34.57
2019-02-07T17:11:45.641Z,47.97
2019-02-07T17:14:16.569Z,40.43
2019-02-07T17:16:47.481Z,36.00
2019-02-07T17:19:17.936Z,39.00
2019-02-07T17:21:48.401Z,38.97
2019-02-07T17:24:19.245Z,110.27
2019-02-07T17:26:50.240Z,79.20
2019-02-07T17:29:21.257Z,70.83
2019-02-07T17:31:52.083Z,70.07
2019-02-07T17:34:22.283Z,64.50
2019-02-07T17:36:52.961Z,66.03
2019-02-07T17:39:23.444Z,64.00
2019-02-07T17:42:02.363Z,61.73
2019-02-07T17:44:34.330Z,60.17
2019-02-07T17:47:05.641Z,55.33
2019-02-07T17:49:37.241Z,50.67
2019-02-07T17:52:08.128Z,52.33
2019-02-07T17:54:41.841Z,55.03
2019-02-07T17:57:13.126Z,51.93
2019-02-07T17:59:43.802Z,48.33
2019-02-07T18:02:15.106Z,53.50
2019-02-07T18:04:46.162Z,54.33
2019-02-07T18:07:16.763Z,54.20
2019-02-07T18:09:48.885Z,56.47
2019-02-07T18:12:19.602Z,72.77
2019-02-07T18:14:50.167Z,68.27
2019-02-07T18:17:20.721Z,61.60
2019-02-07T18:19:51.281Z,64.77
2019-02-07T18:22:22.033Z,60.07
2019-02-07T18:24:52.251Z,55.27
2019-02-07T18:27:22.625Z,53.73
2019-02-07T18:29:52.841Z,59.60
2019-02-07T18:32:23.193Z,59.47
2019-02-07T18:34:53.755Z,58.30
2019-02-07T18:37:24.200Z,61.90
2019-02-07T18:39:54.560Z,59.10
2019-02-07T18:42:24.631Z,57.83
2019-02-07T18:44:54.882Z,59.40
2019-02-07T18:47:25.171Z,56.57
2019-02-07T18:49:55.591Z,66.20
2019-02-07T18:52:26.048Z,63.33
2019-02-07T18:54:56.443Z,61.57
2019-02-07T18:57:26.661Z,64.13
2019-02-07T18:59:56.762Z,56.77
2019-02-07T19:02:26.755Z,58.47
2019-02-07T19:04:57.383Z,60.87
2019-02-07T19:07:27.774Z,57.73
2019-02-07T19:09:57.656Z,55.93
2019-02-07T19:12:27.875Z,57.50
2019-02-07T19:14:59.026Z,63.27
2019-02-07T19:17:29.163Z,64.40
2019-02-07T19:20:00.438Z,71.27
2019-02-07T19:22:31.755Z,94.17
2019-02-07T19:25:02.056Z,132.83
2019-02-07T19:27:32.424Z,99.30
2019-02-07T19:30:02.496Z,70.03
2019-02-07T19:32:33.441Z,66.07
2019-02-07T19:35:03.481Z,57.97
2019-02-07T19:37:33.781Z,62.30
2019-02-07T19:40:05.104Z,57.87
2019-02-07T19:42:35.770Z,55.70
2019-02-07T19:45:09.116Z,57.00
2019-02-07T19:47:41.119Z,56.47
2019-02-07T19:50:16.856Z,54.33
2019-02-07T19:52:47.243Z,56.87
2019-02-07T19:55:19.735Z,56.63
2019-02-07T19:57:51.172Z,50.77
2019-02-07T20:00:27.506Z,58.07
2019-02-07T20:03:04.892Z,49.93
2019-02-07T20:05:36.910Z,49.23
2019-02-07T20:08:07.380Z,49.97
2019-02-07T20:10:38.013Z,51.73
2019-02-07T20:13:08.200Z,51.20
2019-02-07T20:15:41.294Z,50.90
2019-02-07T20:18:12.814Z,49.53
2019-02-07T20:20:43.942Z,47.83
2019-02-07T20:23:14.416Z,48.33
2019-02-07T20:25:45.214Z,47.47
2019-02-07T20:28:15.534Z,51.73
2019-02-07T20:30:46.345Z,50.80
2019-02-07T20:33:17.134Z,52.47
2019-02-07T20:35:47.734Z,52.83
2019-02-07T20:38:18.057Z,57.70
2019-02-07T20:40:48.534Z,49.43
2019-02-07T20:43:21.053Z,49.50
2019-02-07T20:45:51.453Z,55.93
2019-02-07T20:48:22.277Z,53.37
2019-02-07T20:50:53.253Z,57.70
2019-02-07T20:53:23.973Z,59.40
2019-02-07T20:55:54.616Z,54.53
2019-02-07T20:58:26.213Z,58.17
2019-02-07T21:00:57.014Z,60.00
2019-02-07T21:03:27.575Z,54.80
2019-02-07T21:05:58.253Z,52.87
2019-02-07T21:08:28.979Z,63.43
2019-02-07T21:10:59.341Z,60.90
2019-02-07T21:13:30.094Z,60.63
2019-02-07T21:16:00.653Z,59.63
2019-02-07T21:18:31.415Z,61.83
2019-02-07T21:21:02.145Z,58.00
2019-02-07T21:23:33.174Z,52.37
2019-02-07T21:26:03.901Z,57.47
2019-02-07T21:28:34.494Z,56.87
2019-02-07T21:31:06.454Z,61.20
2019-02-07T21:33:37.135Z,67.10
2019-02-07T21:36:07.748Z,60.93
2019-02-07T21:38:38.896Z,56.57
2019-02-07T21:41:09.662Z,64.33
2019-02-07T21:43:40.573Z,63.47
2019-02-07T21:46:11.374Z,52.07
2019-02-07T21:48:42.021Z,55.03
2019-02-07T21:51:12.342Z,63.77
2019-02-07T21:53:43.415Z,59.73
2019-02-07T21:56:13.901Z,64.67
2019-02-07T21:58:44.694Z,68.03
2019-02-07T22:01:14.966Z,64.10
2019-02-07T22:03:47.006Z,60.23
2019-02-07T22:06:18.727Z,65.97
2019-02-07T22:08:49.353Z,69.97
2019-02-07T22:11:19.807Z,64.00
2019-02-07T22:13:50.411Z,70.47
2019-02-07T22:16:21.268Z,61.80
2019-02-07T22:18:53.126Z,68.33
2019-02-07T22:21:23.309Z,67.10
2019-02-07T22:23:53.702Z,62.03
2019-02-07T22:26:24.417Z,73.63
2019-02-07T22:28:54.734Z,66.40
2019-02-07T22:31:25.008Z,64.30
2019-02-07T22:33:55.527Z,61.63
2019-02-07T22:36:29.995Z,61.23
2019-02-07T22:39:01.327Z,66.33
2019-02-07T22:41:33.174Z,67.50
2019-02-07T22:44:03.334Z,65.40
2019-02-07T22:46:34.545Z,67.33
2019-02-07T22:49:05.166Z,64.97
2019-02-07T22:51:35.587Z,73.23
2019-02-07T22:54:06.174Z,74.77
2019-02-07T22:56:44.924Z,79.90
2019-02-07T22:59:08.287Z,66.17
2019-02-07T23:01:41.294Z,74.03
2019-02-07T23:04:11.829Z,73.53
2019-02-07T23:06:42.167Z,68.13
2019-02-07T23:09:13.514Z,73.77
2019-02-07T23:11:44.114Z,68.97
2019-02-07T23:14:15.187Z,68.87
2019-02-07T23:16:45.780Z,71.93
2019-02-07T23:19:16.060Z,78.37
2019-02-07T23:21:46.075Z,66.67
2019-02-07T23:24:16.520Z,76.03
2019-02-07T23:26:46.539Z,74.00
2019-02-07T23:29:16.820Z,69.00
2019-02-07T23:31:47.110Z,74.80
2019-02-07T23:34:17.297Z,71.17
2019-02-07T23:36:47.566Z,74.63
2019-02-07T23:39:17.915Z,77.23
2019-02-07T23:41:48.678Z,66.90
2019-02-07T23:44:19.190Z,80.73
2019-02-07T23:46:49.545Z,73.93
2019-02-07T23:49:19.743Z,69.23
2019-02-07T23:51:50.050Z,72.97
2019-02-07T23:54:20.365Z,77.97
2019-02-07T23:56:51.051Z,81.40
2019-02-07T23:59:21.019Z,73.87
